sensor_id;sensor_type;location;lat;lon;timestamp;temperature;humidity
70807;DHT22;58882;52.170;5.386;2023-09-19T00:00:38;23.20;54.40
70807;DHT22;58882;52.170;5.386;2023-09-19T00:03:06;23.20;54.30
70807;DHT22;58882;52.170;5.386;2023-09-19T00:05:35;23.20;54.30
70807;DHT22;58882;52.170;5.386;2023-09-19T00:08:02;23.20;54.20
70807;DHT22;58882;52.170;5.386;2023-09-19T00:10:33;23.20;54.10
70807;DHT22;58882;52.170;5.386;2023-09-19T00:13:03;23.20;54.00
70807;DHT22;58882;52.170;5.386;2023-09-19T00:15:39;23.10;54.00
70807;DHT22;58882;52.170;5.386;2023-09-19T00:18:07;23.20;54.00
70807;DHT22;58882;52.170;5.386;2023-09-19T00:20:36;23.20;53.90
70807;DHT22;58882;52.170;5.386;2023-09-19T00:23:03;23.20;53.90
70807;DHT22;58882;52.170;5.386;2023-09-19T00:25:38;23.20;53.80
70807;DHT22;58882;52.170;5.386;2023-09-19T00:28:06;23.20;53.70
70807;DHT22;58882;52.170;5.386;2023-09-19T00:30:35;23.20;53.70
70807;DHT22;58882;52.170;5.386;2023-09-19T00:33:02;23.20;53.60
70807;DHT22;58882;52.170;5.386;2023-09-19T00:35:33;23.20;53.60
70807;DHT22;58882;52.170;5.386;2023-09-19T00:38:00;23.20;53.50
70807;DHT22;58882;52.170;5.386;2023-09-19T00:40:27;23.10;53.30
70807;DHT22;58882;52.170;5.386;2023-09-19T00:42:57;23.20;53.30
70807;DHT22;58882;52.170;5.386;2023-09-19T00:45:26;23.10;53.20
70807;DHT22;58882;52.170;5.386;2023-09-19T00:47:55;23.10;53.20
70807;DHT22;58882;52.170;5.386;2023-09-19T00:50:24;23.20;53.30
70807;DHT22;58882;52.170;5.386;2023-09-19T00:52:54;23.20;53.30
70807;DHT22;58882;52.170;5.386;2023-09-19T00:55:24;23.20;53.30
70807;DHT22;58882;52.170;5.386;2023-09-19T00:57:52;23.10;53.20
70807;DHT22;58882;52.170;5.386;2023-09-19T01:00:19;23.10;53.20
70807;DHT22;58882;52.170;5.386;2023-09-19T01:02:47;23.10;53.20
70807;DHT22;58882;52.170;5.386;2023-09-19T01:05:15;23.10;53.30
70807;DHT22;58882;52.170;5.386;2023-09-19T01:07:42;23.10;53.20
70807;DHT22;58882;52.170;5.386;2023-09-19T01:10:17;23.10;53.20
70807;DHT22;58882;52.170;5.386;2023-09-19T01:13:04;23.10;53.20
70807;DHT22;58882;52.170;5.386;2023-09-19T01:18:11;23.10;53.20
70807;DHT22;58882;52.170;5.386;2023-09-19T01:29:30;23.10;53.20
70807;DHT22;58882;52.170;5.386;2023-09-19T01:32:03;23.10;53.20
70807;DHT22;58882;52.170;5.386;2023-09-19T01:34:47;23.10;53.20
70807;DHT22;58882;52.170;5.386;2023-09-19T01:37:17;23.00;53.20
70807;DHT22;58882;52.170;5.386;2023-09-19T01:39:53;23.00;53.20
70807;DHT22;58882;52.170;5.386;2023-09-19T01:42:28;23.00;53.20
70807;DHT22;58882;52.170;5.386;2023-09-19T01:45:05;23.10;53.20
70807;DHT22;58882;52.170;5.386;2023-09-19T01:47:51;23.00;54.20
70807;DHT22;58882;52.170;5.386;2023-09-19T01:50:41;23.00;53.20
70807;DHT22;58882;52.170;5.386;2023-09-19T01:53:19;23.00;53.20
70807;DHT22;58882;52.170;5.386;2023-09-19T01:55:49;23.00;53.20
70807;DHT22;58882;52.170;5.386;2023-09-19T01:58:21;23.00;53.20
70807;DHT22;58882;52.170;5.386;2023-09-19T02:00:53;23.00;54.20
70807;DHT22;58882;52.170;5.386;2023-09-19T02:03:22;23.00;54.20
70807;DHT22;58882;52.170;5.386;2023-09-19T02:05:50;23.00;53.30
70807;DHT22;58882;52.170;5.386;2023-09-19T02:08:19;23.00;53.20
70807;DHT22;58882;52.170;5.386;2023-09-19T02:10:46;23.00;53.20
70807;DHT22;58882;52.170;5.386;2023-09-19T02:13:20;23.00;53.30
70807;DHT22;58882;52.170;5.386;2023-09-19T02:15:48;23.00;53.20
70807;DHT22;58882;52.170;5.386;2023-09-19T02:18:15;23.00;53.20
70807;DHT22;58882;52.170;5.386;2023-09-19T02:20:42;23.00;54.20
70807;DHT22;58882;52.170;5.386;2023-09-19T02:23:10;23.00;53.20
70807;DHT22;58882;52.170;5.386;2023-09-19T02:25:37;23.00;53.20
70807;DHT22;58882;52.170;5.386;2023-09-19T02:28:07;23.00;53.20
70807;DHT22;58882;52.170;5.386;2023-09-19T02:30:35;23.00;53.20
70807;DHT22;58882;52.170;5.386;2023-09-19T02:33:03;23.00;53.20
70807;DHT22;58882;52.170;5.386;2023-09-19T02:35:30;23.00;53.20
70807;DHT22;58882;52.170;5.386;2023-09-19T02:38:02;23.00;53.20
70807;DHT22;58882;52.170;5.386;2023-09-19T02:40:33;23.00;53.10
70807;DHT22;58882;52.170;5.386;2023-09-19T02:43:03;23.00;53.10
70807;DHT22;58882;52.170;5.386;2023-09-19T02:45:30;23.00;53.00
70807;DHT22;58882;52.170;5.386;2023-09-19T02:47:57;23.00;52.90
70807;DHT22;58882;52.170;5.386;2023-09-19T02:50:24;23.00;52.90
70807;DHT22;58882;52.170;5.386;2023-09-19T02:52:51;23.00;52.80
70807;DHT22;58882;52.170;5.386;2023-09-19T02:55:19;23.00;52.60
70807;DHT22;58882;52.170;5.386;2023-09-19T02:57:49;23.00;52.60
70807;DHT22;58882;52.170;5.386;2023-09-19T03:00:18;23.00;52.50
70807;DHT22;58882;52.170;5.386;2023-09-19T03:02:53;23.00;52.50
70807;DHT22;58882;52.170;5.386;2023-09-19T03:05:21;23.00;52.40
70807;DHT22;58882;52.170;5.386;2023-09-19T03:07:50;23.00;52.30
70807;DHT22;58882;52.170;5.386;2023-09-19T03:10:19;23.00;52.30
70807;DHT22;58882;52.170;5.386;2023-09-19T03:12:47;23.00;52.10
70807;DHT22;58882;52.170;5.386;2023-09-19T03:15:14;22.90;52.00
70807;DHT22;58882;52.170;5.386;2023-09-19T03:17:48;23.00;52.00
70807;DHT22;58882;52.170;5.386;2023-09-19T03:20:19;22.90;51.80
70807;DHT22;58882;52.170;5.386;2023-09-19T03:22:48;22.90;51.80
70807;DHT22;58882;52.170;5.386;2023-09-19T03:25:16;22.90;51.70
70807;DHT22;58882;52.170;5.386;2023-09-19T03:27:47;22.90;51.60
70807;DHT22;58882;52.170;5.386;2023-09-19T03:30:14;22.90;51.50
70807;DHT22;58882;52.170;5.386;2023-09-19T03:32:48;22.90;51.40
70807;DHT22;58882;52.170;5.386;2023-09-19T03:35:18;22.90;51.30
70807;DHT22;58882;52.170;5.386;2023-09-19T03:37:46;22.90;51.20
70807;DHT22;58882;52.170;5.386;2023-09-19T03:40:14;22.90;51.20
70807;DHT22;58882;52.170;5.386;2023-09-19T03:42:42;22.80;51.00
70807;DHT22;58882;52.170;5.386;2023-09-19T03:45:12;22.80;50.90
70807;DHT22;58882;52.170;5.386;2023-09-19T03:47:44;22.90;50.90
70807;DHT22;58882;52.170;5.386;2023-09-19T03:50:16;22.90;50.80
70807;DHT22;58882;52.170;5.386;2023-09-19T03:52:44;22.90;50.70
70807;DHT22;58882;52.170;5.386;2023-09-19T03:55:12;22.80;50.50
70807;DHT22;58882;52.170;5.386;2023-09-19T03:57:40;22.80;50.50
70807;DHT22;58882;52.170;5.386;2023-09-19T04:00:08;22.80;50.30
70807;DHT22;58882;52.170;5.386;2023-09-19T04:02:39;22.80;50.30
70807;DHT22;58882;52.170;5.386;2023-09-19T04:05:07;22.80;50.20
70807;DHT22;58882;52.170;5.386;2023-09-19T04:07:34;22.80;50.20
70807;DHT22;58882;52.170;5.386;2023-09-19T04:10:02;22.80;50.10
70807;DHT22;58882;52.170;5.386;2023-09-19T04:12:29;22.80;50.10
70807;DHT22;58882;52.170;5.386;2023-09-19T04:14:56;22.70;49.90
70807;DHT22;58882;52.170;5.386;2023-09-19T04:17:23;22.80;49.90
70807;DHT22;58882;52.170;5.386;2023-09-19T04:19:51;22.70;49.70
70807;DHT22;58882;52.170;5.386;2023-09-19T04:22:17;22.80;49.70
70807;DHT22;58882;52.170;5.386;2023-09-19T04:24:45;22.70;49.60
70807;DHT22;58882;52.170;5.386;2023-09-19T04:27:12;22.70;49.50
70807;DHT22;58882;52.170;5.386;2023-09-19T04:29:42;22.70;49.50
70807;DHT22;58882;52.170;5.386;2023-09-19T04:32:09;22.70;50.40
70807;DHT22;58882;52.170;5.386;2023-09-19T04:34:36;22.70;49.30
70807;DHT22;58882;52.170;5.386;2023-09-19T04:37:06;22.70;49.20
70807;DHT22;58882;52.170;5.386;2023-09-19T04:39:32;22.70;49.20
70807;DHT22;58882;52.170;5.386;2023-09-19T04:42:00;22.70;49.10
70807;DHT22;58882;52.170;5.386;2023-09-19T04:44:27;22.70;49.10
70807;DHT22;58882;52.170;5.386;2023-09-19T04:46:54;22.70;49.00
70807;DHT22;58882;52.170;5.386;2023-09-19T04:49:21;22.70;48.90
70807;DHT22;58882;52.170;5.386;2023-09-19T04:51:48;22.70;48.90
70807;DHT22;58882;52.170;5.386;2023-09-19T04:54:15;22.70;48.80
70807;DHT22;58882;52.170;5.386;2023-09-19T04:56:42;22.70;48.80
70807;DHT22;58882;52.170;5.386;2023-09-19T04:59:09;22.70;48.70
70807;DHT22;58882;52.170;5.386;2023-09-19T05:01:37;22.70;48.60
70807;DHT22;58882;52.170;5.386;2023-09-19T05:04:04;22.60;48.60
70807;DHT22;58882;52.170;5.386;2023-09-19T05:06:32;22.60;48.70
70807;DHT22;58882;52.170;5.386;2023-09-19T05:09:00;22.60;48.70
70807;DHT22;58882;52.170;5.386;2023-09-19T05:11:26;22.60;48.70
70807;DHT22;58882;52.170;5.386;2023-09-19T05:13:53;22.60;48.70
70807;DHT22;58882;52.170;5.386;2023-09-19T05:16:21;22.60;48.60
70807;DHT22;58882;52.170;5.386;2023-09-19T05:18:48;22.60;48.60
70807;DHT22;58882;52.170;5.386;2023-09-19T05:21:16;22.60;48.50
70807;DHT22;58882;52.170;5.386;2023-09-19T05:23:44;22.60;48.50
70807;DHT22;58882;52.170;5.386;2023-09-19T05:26:11;22.60;48.50
70807;DHT22;58882;52.170;5.386;2023-09-19T05:28:39;22.60;48.50
70807;DHT22;58882;52.170;5.386;2023-09-19T05:31:06;22.60;48.50
70807;DHT22;58882;52.170;5.386;2023-09-19T05:33:33;22.60;48.50
70807;DHT22;58882;52.170;5.386;2023-09-19T05:36:00;22.60;48.40
70807;DHT22;58882;52.170;5.386;2023-09-19T05:38:27;22.60;48.30
70807;DHT22;58882;52.170;5.386;2023-09-19T05:40:54;22.60;48.20
70807;DHT22;58882;52.170;5.386;2023-09-19T05:43:21;22.60;48.10
70807;DHT22;58882;52.170;5.386;2023-09-19T05:45:48;22.60;48.10
70807;DHT22;58882;52.170;5.386;2023-09-19T05:48:19;22.60;48.00
70807;DHT22;58882;52.170;5.386;2023-09-19T05:50:47;22.60;48.90
70807;DHT22;58882;52.170;5.386;2023-09-19T05:53:15;22.50;47.80
70807;DHT22;58882;52.170;5.386;2023-09-19T05:55:43;22.50;47.80
70807;DHT22;58882;52.170;5.386;2023-09-19T05:58:10;22.40;47.80
70807;DHT22;58882;52.170;5.386;2023-09-19T06:00:40;22.20;46.80
70807;DHT22;58882;52.170;5.386;2023-09-19T06:03:09;21.80;47.00
70807;DHT22;58882;52.170;5.386;2023-09-19T06:05:36;21.50;47.70
70807;DHT22;58882;52.170;5.386;2023-09-19T06:08:08;21.30;48.90
70807;DHT22;58882;52.170;5.386;2023-09-19T06:10:36;21.30;49.40
70807;DHT22;58882;52.170;5.386;2023-09-19T06:13:03;21.30;49.40
70807;DHT22;58882;52.170;5.386;2023-09-19T06:15:37;21.40;49.30
70807;DHT22;58882;52.170;5.386;2023-09-19T06:18:04;21.50;49.10
70807;DHT22;58882;52.170;5.386;2023-09-19T06:20:32;21.70;49.00
70807;DHT22;58882;52.170;5.386;2023-09-19T06:23:00;21.80;48.80
70807;DHT22;58882;52.170;5.386;2023-09-19T06:25:28;21.90;48.70
70807;DHT22;58882;52.170;5.386;2023-09-19T06:27:55;21.90;48.50
70807;DHT22;58882;52.170;5.386;2023-09-19T06:30:24;22.00;48.30
70807;DHT22;58882;52.170;5.386;2023-09-19T06:32:59;22.10;48.30
70807;DHT22;58882;52.170;5.386;2023-09-19T06:35:27;22.10;48.10
70807;DHT22;58882;52.170;5.386;2023-09-19T06:37:54;22.20;48.00
70807;DHT22;58882;52.170;5.386;2023-09-19T06:40:25;22.20;47.90
70807;DHT22;58882;52.170;5.386;2023-09-19T06:42:53;22.30;47.80
70807;DHT22;58882;52.170;5.386;2023-09-19T06:45:20;22.30;47.80
70807;DHT22;58882;52.170;5.386;2023-09-19T06:47:50;22.40;47.70
70807;DHT22;58882;52.170;5.386;2023-09-19T06:50:20;22.50;47.60
70807;DHT22;58882;52.170;5.386;2023-09-19T06:52:50;22.50;47.50
70807;DHT22;58882;52.170;5.386;2023-09-19T06:55:19;22.60;47.40
70807;DHT22;58882;52.170;5.386;2023-09-19T06:57:47;22.70;47.30
70807;DHT22;58882;52.170;5.386;2023-09-19T07:00:16;22.70;47.20
70807;DHT22;58882;52.170;5.386;2023-09-19T07:05:24;22.80;46.90
70807;DHT22;58882;52.170;5.386;2023-09-19T07:07:51;23.00;46.90
70807;DHT22;58882;52.170;5.386;2023-09-19T07:10:18;23.00;46.70
70807;DHT22;58882;52.170;5.386;2023-09-19T07:12:46;23.10;46.60
70807;DHT22;58882;52.170;5.386;2023-09-19T07:15:13;23.30;46.50
70807;DHT22;58882;52.170;5.386;2023-09-19T07:17:40;23.30;46.30
70807;DHT22;58882;52.170;5.386;2023-09-19T07:20:07;23.40;46.10
70807;DHT22;58882;52.170;5.386;2023-09-19T07:22:35;23.50;46.10
70807;DHT22;58882;52.170;5.386;2023-09-19T07:25:06;23.60;45.90
70807;DHT22;58882;52.170;5.386;2023-09-19T07:27:33;23.70;45.70
70807;DHT22;58882;52.170;5.386;2023-09-19T07:30:00;23.80;45.50
70807;DHT22;58882;52.170;5.386;2023-09-19T07:32:27;23.80;45.30
70807;DHT22;58882;52.170;5.386;2023-09-19T07:34:54;24.00;45.10
70807;DHT22;58882;52.170;5.386;2023-09-19T07:37:22;24.10;45.00
70807;DHT22;58882;52.170;5.386;2023-09-19T07:39:49;24.10;44.70
70807;DHT22;58882;52.170;5.386;2023-09-19T07:42:17;24.30;44.60
70807;DHT22;58882;52.170;5.386;2023-09-19T07:44:44;24.50;44.20
70807;DHT22;58882;52.170;5.386;2023-09-19T07:47:17;24.70;43.80
70807;DHT22;58882;52.170;5.386;2023-09-19T07:49:46;24.90;43.40
70807;DHT22;58882;52.170;5.386;2023-09-19T07:52:15;25.10;43.10
70807;DHT22;58882;52.170;5.386;2023-09-19T07:54:42;25.30;42.80
70807;DHT22;58882;52.170;5.386;2023-09-19T07:57:10;25.50;42.30
70807;DHT22;58882;52.170;5.386;2023-09-19T07:59:38;25.80;42.50
70807;DHT22;58882;52.170;5.386;2023-09-19T08:02:05;25.90;41.70
70807;DHT22;58882;52.170;5.386;2023-09-19T08:04:32;25.90;41.60
70807;DHT22;58882;52.170;5.386;2023-09-19T08:07:02;25.90;41.60
70807;DHT22;58882;52.170;5.386;2023-09-19T08:09:31;26.10;41.30
70807;DHT22;58882;52.170;5.386;2023-09-19T08:12:00;26.30;41.00
70807;DHT22;58882;52.170;5.386;2023-09-19T08:14:32;26.40;41.70
70807;DHT22;58882;52.170;5.386;2023-09-19T08:16:59;26.60;40.40
70807;DHT22;58882;52.170;5.386;2023-09-19T08:19:27;26.70;40.00
70807;DHT22;58882;52.170;5.386;2023-09-19T08:21:56;26.90;40.30
70807;DHT22;58882;52.170;5.386;2023-09-19T08:24:26;26.80;39.80
70807;DHT22;58882;52.170;5.386;2023-09-19T08:26:57;26.80;39.80
70807;DHT22;58882;52.170;5.386;2023-09-19T08:29:25;26.80;39.80
70807;DHT22;58882;52.170;5.386;2023-09-19T08:31:55;26.80;39.80
70807;DHT22;58882;52.170;5.386;2023-09-19T08:34:23;26.80;39.60
70807;DHT22;58882;52.170;5.386;2023-09-19T08:36:51;26.90;39.60
70807;DHT22;58882;52.170;5.386;2023-09-19T08:39:26;26.80;39.40
70807;DHT22;58882;52.170;5.386;2023-09-19T08:42:00;26.90;39.50
70807;DHT22;58882;52.170;5.386;2023-09-19T08:44:27;26.90;39.40
70807;DHT22;58882;52.170;5.386;2023-09-19T08:47:16;27.00;39.40
70807;DHT22;58882;52.170;5.386;2023-09-19T08:50:04;27.00;39.20
70807;DHT22;58882;52.170;5.386;2023-09-19T08:52:43;27.20;38.90
70807;DHT22;58882;52.170;5.386;2023-09-19T08:55:12;27.30;38.70
70807;DHT22;58882;52.170;5.386;2023-09-19T08:57:41;27.40;38.60
70807;DHT22;58882;52.170;5.386;2023-09-19T09:00:11;27.50;38.40
70807;DHT22;58882;52.170;5.386;2023-09-19T09:02:39;27.60;38.20
70807;DHT22;58882;52.170;5.386;2023-09-19T09:05:09;27.80;37.90
70807;DHT22;58882;52.170;5.386;2023-09-19T09:07:37;27.90;37.60
70807;DHT22;58882;52.170;5.386;2023-09-19T09:10:05;28.00;37.40
70807;DHT22;58882;52.170;5.386;2023-09-19T09:12:33;28.20;37.70
70807;DHT22;58882;52.170;5.386;2023-09-19T09:15:03;28.40;37.00
70807;DHT22;58882;52.170;5.386;2023-09-19T09:17:30;28.40;36.60
70807;DHT22;58882;52.170;5.386;2023-09-19T09:19:58;28.40;36.60
70807;DHT22;58882;52.170;5.386;2023-09-19T09:22:25;28.30;36.60
70807;DHT22;58882;52.170;5.386;2023-09-19T09:24:57;28.20;36.60
70807;DHT22;58882;52.170;5.386;2023-09-19T09:27:31;28.20;36.50
70807;DHT22;58882;52.170;5.386;2023-09-19T09:29:59;28.10;36.50
70807;DHT22;58882;52.170;5.386;2023-09-19T09:32:30;27.90;36.70
70807;DHT22;58882;52.170;5.386;2023-09-19T09:35:01;27.80;36.90
70807;DHT22;58882;52.170;5.386;2023-09-19T09:37:29;27.70;37.00
70807;DHT22;58882;52.170;5.386;2023-09-19T09:39:59;27.70;37.20
70807;DHT22;58882;52.170;5.386;2023-09-19T09:42:46;27.60;37.20
70807;DHT22;58882;52.170;5.386;2023-09-19T09:45:21;27.60;37.40
70807;DHT22;58882;52.170;5.386;2023-09-19T09:48:01;27.60;37.40
70807;DHT22;58882;52.170;5.386;2023-09-19T09:50:48;27.50;37.50
70807;DHT22;58882;52.170;5.386;2023-09-19T09:56:06;27.50;37.40
70807;DHT22;58882;52.170;5.386;2023-09-19T09:58:50;27.50;37.60
70807;DHT22;58882;52.170;5.386;2023-09-19T10:01:22;27.50;37.70
70807;DHT22;58882;52.170;5.386;2023-09-19T10:03:59;27.50;37.70
70807;DHT22;58882;52.170;5.386;2023-09-19T10:06:39;27.50;37.80
70807;DHT22;58882;52.170;5.386;2023-09-19T10:09:08;27.40;37.90
70807;DHT22;58882;52.170;5.386;2023-09-19T10:11:49;27.40;38.00
70807;DHT22;58882;52.170;5.386;2023-09-19T10:14:30;27.20;38.10
70807;DHT22;58882;52.170;5.386;2023-09-19T10:17:00;27.10;38.20
70807;DHT22;58882;52.170;5.386;2023-09-19T10:19:37;27.00;38.20
70807;DHT22;58882;52.170;5.386;2023-09-19T10:22:05;26.90;38.40
70807;DHT22;58882;52.170;5.386;2023-09-19T10:24:35;26.80;38.50
70807;DHT22;58882;52.170;5.386;2023-09-19T10:27:19;26.70;38.70
70807;DHT22;58882;52.170;5.386;2023-09-19T10:29:49;26.60;39.00
70807;DHT22;58882;52.170;5.386;2023-09-19T10:32:18;26.60;39.10
70807;DHT22;58882;52.170;5.386;2023-09-19T10:34:49;26.70;39.00
70807;DHT22;58882;52.170;5.386;2023-09-19T10:37:17;26.80;38.70
70807;DHT22;58882;52.170;5.386;2023-09-19T10:39:46;27.00;38.40
70807;DHT22;58882;52.170;5.386;2023-09-19T10:42:19;27.20;38.10
70807;DHT22;58882;52.170;5.386;2023-09-19T10:44:50;27.50;37.80
70807;DHT22;58882;52.170;5.386;2023-09-19T10:47:20;27.60;37.50
70807;DHT22;58882;52.170;5.386;2023-09-19T10:49:51;27.70;37.40
70807;DHT22;58882;52.170;5.386;2023-09-19T10:52:22;27.80;37.30
70807;DHT22;58882;52.170;5.386;2023-09-19T10:54:53;27.80;37.20
70807;DHT22;58882;52.170;5.386;2023-09-19T10:57:23;27.80;37.30
70807;DHT22;58882;52.170;5.386;2023-09-19T11:00:01;27.70;37.40
70807;DHT22;58882;52.170;5.386;2023-09-19T11:02:29;27.60;37.60
70807;DHT22;58882;52.170;5.386;2023-09-19T11:05:11;27.50;38.70
70807;DHT22;58882;52.170;5.386;2023-09-19T11:07:57;27.40;37.80
70807;DHT22;58882;52.170;5.386;2023-09-19T11:10:48;27.30;39.00
70807;DHT22;58882;52.170;5.386;2023-09-19T11:13:28;27.20;38.10
70807;DHT22;58882;52.170;5.386;2023-09-19T11:26:49;26.80;38.70
70807;DHT22;58882;52.170;5.386;2023-09-19T11:29:30;26.70;38.90
70807;DHT22;58882;52.170;5.386;2023-09-19T11:31:58;26.70;39.10
70807;DHT22;58882;52.170;5.386;2023-09-19T11:34:39;26.60;39.10
70807;DHT22;58882;52.170;5.386;2023-09-19T11:39:38;26.50;39.50
70807;DHT22;58882;52.170;5.386;2023-09-19T11:48:24;26.30;39.70
70807;DHT22;58882;52.170;5.386;2023-09-19T11:50:54;26.30;39.80
70807;DHT22;58882;52.170;5.386;2023-09-19T11:53:23;26.20;39.80
70807;DHT22;58882;52.170;5.386;2023-09-19T11:55:50;26.20;39.90
70807;DHT22;58882;52.170;5.386;2023-09-19T11:58:19;26.20;39.90
70807;DHT22;58882;52.170;5.386;2023-09-19T12:00:54;26.10;39.90
70807;DHT22;58882;52.170;5.386;2023-09-19T12:03:21;26.10;39.90
70807;DHT22;58882;52.170;5.386;2023-09-19T12:05:49;26.10;40.00
70807;DHT22;58882;52.170;5.386;2023-09-19T12:08:16;26.00;40.00
70807;DHT22;58882;52.170;5.386;2023-09-19T12:10:50;26.00;40.20
70807;DHT22;58882;52.170;5.386;2023-09-19T12:13:22;25.90;40.10
70807;DHT22;58882;52.170;5.386;2023-09-19T12:15:48;25.90;40.30
70807;DHT22;58882;52.170;5.386;2023-09-19T12:18:29;25.80;40.30
70807;DHT22;58882;52.170;5.386;2023-09-19T12:20:57;25.80;40.40
70807;DHT22;58882;52.170;5.386;2023-09-19T12:23:24;25.80;40.40
70807;DHT22;58882;52.170;5.386;2023-09-19T12:25:54;25.70;40.50
70807;DHT22;58882;52.170;5.386;2023-09-19T12:28:27;25.70;40.70
70807;DHT22;58882;52.170;5.386;2023-09-19T12:30:54;25.70;40.80
70807;DHT22;58882;52.170;5.386;2023-09-19T12:33:21;25.60;40.90
70807;DHT22;58882;52.170;5.386;2023-09-19T12:35:52;25.60;41.00
70807;DHT22;58882;52.170;5.386;2023-09-19T12:38:28;25.50;41.00
70807;DHT22;58882;52.170;5.386;2023-09-19T12:40:56;25.50;41.20
70807;DHT22;58882;52.170;5.386;2023-09-19T12:43:26;25.50;41.20
70807;DHT22;58882;52.170;5.386;2023-09-19T12:45:53;25.50;41.30
70807;DHT22;58882;52.170;5.386;2023-09-19T12:48:24;25.40;41.30
70807;DHT22;58882;52.170;5.386;2023-09-19T12:53:37;25.40;41.30
70807;DHT22;58882;52.170;5.386;2023-09-19T12:56:11;25.40;41.30
70807;DHT22;58882;52.170;5.386;2023-09-19T12:58:57;25.30;41.30
70807;DHT22;58882;52.170;5.386;2023-09-19T13:01:27;25.30;41.40
70807;DHT22;58882;52.170;5.386;2023-09-19T13:04:20;25.30;41.60
70807;DHT22;58882;52.170;5.386;2023-09-19T13:06:53;25.30;41.70
70807;DHT22;58882;52.170;5.386;2023-09-19T13:09:22;25.40;41.80
70807;DHT22;58882;52.170;5.386;2023-09-19T13:12:01;25.40;41.80
70807;DHT22;58882;52.170;5.386;2023-09-19T13:14:30;25.30;42.80
70807;DHT22;58882;52.170;5.386;2023-09-19T13:17:07;25.30;41.80
70807;DHT22;58882;52.170;5.386;2023-09-19T13:19:45;25.30;41.80
70807;DHT22;58882;52.170;5.386;2023-09-19T13:25:04;25.20;42.00
70807;DHT22;58882;52.170;5.386;2023-09-19T13:27:31;25.20;42.20
70807;DHT22;58882;52.170;5.386;2023-09-19T13:29:58;25.20;42.20
70807;DHT22;58882;52.170;5.386;2023-09-19T13:32:26;25.10;42.30
70807;DHT22;58882;52.170;5.386;2023-09-19T13:34:53;25.10;42.30
70807;DHT22;58882;52.170;5.386;2023-09-19T13:37:20;25.10;42.50
70807;DHT22;58882;52.170;5.386;2023-09-19T13:39:46;25.10;42.60
70807;DHT22;58882;52.170;5.386;2023-09-19T13:42:14;25.10;42.60
70807;DHT22;58882;52.170;5.386;2023-09-19T13:44:43;25.20;42.80
70807;DHT22;58882;52.170;5.386;2023-09-19T13:47:10;25.20;42.70
70807;DHT22;58882;52.170;5.386;2023-09-19T13:49:40;25.20;42.70
70807;DHT22;58882;52.170;5.386;2023-09-19T13:52:07;25.20;42.70
70807;DHT22;58882;52.170;5.386;2023-09-19T13:54:35;25.20;42.70
70807;DHT22;58882;52.170;5.386;2023-09-19T13:57:02;25.20;42.70
70807;DHT22;58882;52.170;5.386;2023-09-19T13:59:29;25.20;42.80
70807;DHT22;58882;52.170;5.386;2023-09-19T14:01:57;25.20;42.70
70807;DHT22;58882;52.170;5.386;2023-09-19T14:04:24;25.20;42.70
70807;DHT22;58882;52.170;5.386;2023-09-19T14:06:51;25.10;42.80
70807;DHT22;58882;52.170;5.386;2023-09-19T14:09:18;25.10;42.90
70807;DHT22;58882;52.170;5.386;2023-09-19T14:11:46;25.10;43.00
70807;DHT22;58882;52.170;5.386;2023-09-19T14:14:14;25.00;43.00
70807;DHT22;58882;52.170;5.386;2023-09-19T14:16:41;25.00;43.00
70807;DHT22;58882;52.170;5.386;2023-09-19T14:19:08;25.00;43.00
70807;DHT22;58882;52.170;5.386;2023-09-19T14:21:35;25.00;43.10
70807;DHT22;58882;52.170;5.386;2023-09-19T14:24:06;24.90;43.10
70807;DHT22;58882;52.170;5.386;2023-09-19T14:26:36;24.90;43.20
70807;DHT22;58882;52.170;5.386;2023-09-19T14:29:03;24.90;43.20
70807;DHT22;58882;52.170;5.386;2023-09-19T14:31:30;24.90;43.40
70807;DHT22;58882;52.170;5.386;2023-09-19T14:33:58;24.90;43.40
70807;DHT22;58882;52.170;5.386;2023-09-19T14:36:26;24.90;43.40
70807;DHT22;58882;52.170;5.386;2023-09-19T14:38:53;24.90;43.50
70807;DHT22;58882;52.170;5.386;2023-09-19T14:41:26;24.80;43.50
70807;DHT22;58882;52.170;5.386;2023-09-19T14:43:53;24.80;43.50
70807;DHT22;58882;52.170;5.386;2023-09-19T14:46:21;24.80;43.50
70807;DHT22;58882;52.170;5.386;2023-09-19T14:48:51;24.80;43.60
70807;DHT22;58882;52.170;5.386;2023-09-19T14:51:19;24.80;43.70
70807;DHT22;58882;52.170;5.386;2023-09-19T14:53:46;24.80;43.70
70807;DHT22;58882;52.170;5.386;2023-09-19T14:56:13;24.80;43.80
70807;DHT22;58882;52.170;5.386;2023-09-19T14:58:45;24.70;43.80
70807;DHT22;58882;52.170;5.386;2023-09-19T15:01:13;24.70;43.90
70807;DHT22;58882;52.170;5.386;2023-09-19T15:03:41;24.70;44.00
70807;DHT22;58882;52.170;5.386;2023-09-19T15:06:11;24.70;44.10
70807;DHT22;58882;52.170;5.386;2023-09-19T15:08:41;24.60;44.10
70807;DHT22;58882;52.170;5.386;2023-09-19T15:11:14;24.60;44.20
70807;DHT22;58882;52.170;5.386;2023-09-19T15:13:44;24.60;44.40
70807;DHT22;58882;52.170;5.386;2023-09-19T15:16:12;24.60;44.50
70807;DHT22;58882;52.170;5.386;2023-09-19T15:18:41;24.50;44.50
70807;DHT22;58882;52.170;5.386;2023-09-19T15:21:09;24.60;44.60
70807;DHT22;58882;52.170;5.386;2023-09-19T15:23:38;24.60;44.60
70807;DHT22;58882;52.170;5.386;2023-09-19T15:26:06;24.50;44.60
70807;DHT22;58882;52.170;5.386;2023-09-19T15:28:34;24.50;44.70
70807;DHT22;58882;52.170;5.386;2023-09-19T15:31:06;24.50;44.80
70807;DHT22;58882;52.170;5.386;2023-09-19T15:33:34;24.50;44.90
70807;DHT22;58882;52.170;5.386;2023-09-19T15:36:06;24.50;45.00
70807;DHT22;58882;52.170;5.386;2023-09-19T15:41:35;24.50;45.20
70807;DHT22;58882;52.170;5.386;2023-09-19T15:44:03;24.50;45.20
70807;DHT22;58882;52.170;5.386;2023-09-19T15:46:32;24.50;45.30
70807;DHT22;58882;52.170;5.386;2023-09-19T15:49:03;24.50;45.40
70807;DHT22;58882;52.170;5.386;2023-09-19T15:51:30;24.40;45.40
70807;DHT22;58882;52.170;5.386;2023-09-19T15:53:57;24.50;45.60
70807;DHT22;58882;52.170;5.386;2023-09-19T15:56:26;24.40;46.60
70807;DHT22;58882;52.170;5.386;2023-09-19T15:58:55;24.40;45.70
70807;DHT22;58882;52.170;5.386;2023-09-19T16:01:23;24.40;45.90
70807;DHT22;58882;52.170;5.386;2023-09-19T16:03:52;24.40;46.00
70807;DHT22;58882;52.170;5.386;2023-09-19T16:06:22;24.40;46.10
70807;DHT22;58882;52.170;5.386;2023-09-19T16:08:52;24.30;46.20
70807;DHT22;58882;52.170;5.386;2023-09-19T16:11:19;24.40;46.30
70807;DHT22;58882;52.170;5.386;2023-09-19T16:13:50;24.30;46.40
70807;DHT22;58882;52.170;5.386;2023-09-19T16:16:19;24.30;46.40
70807;DHT22;58882;52.170;5.386;2023-09-19T16:19:00;24.30;46.50
70807;DHT22;58882;52.170;5.386;2023-09-19T16:21:30;24.30;46.50
70807;DHT22;58882;52.170;5.386;2023-09-19T16:23:59;24.30;46.50
70807;DHT22;58882;52.170;5.386;2023-09-19T16:26:27;24.30;46.60
70807;DHT22;58882;52.170;5.386;2023-09-19T16:28:56;24.30;46.60
70807;DHT22;58882;52.170;5.386;2023-09-19T16:31:28;24.20;46.60